sensor_id;sensor_type;location;lat;lon;timestamp;P1;durP1;ratioP1;P2;durP2;ratioP2
56401;SDS011;42299;35.160;26.100;2022-10-31T00:00:20;15.65;;;6.63;;
56401;SDS011;42299;35.160;26.100;2022-10-31T00:01:41;15.43;;;6.40;;
56401;SDS011;42299;35.160;26.100;2022-10-31T00:03:03;12.75;;;5.93;;
56401;SDS011;42299;35.160;26.100;2022-10-31T00:04:25;12.32;;;6.57;;
56401;SDS011;42299;35.160;26.100;2022-10-31T00:05:48;12.43;;;5.85;;
56401;SDS011;42299;35.160;26.100;2022-10-31T00:07:10;18.20;;;6.43;;
56401;SDS011;42299;35.160;26.100;2022-10-31T00:08:32;14.25;;;6.63;;
56401;SDS011;42299;35.160;26.100;2022-10-31T00:09:55;10.27;;;6.28;;
56401;SDS011;42299;35.160;26.100;2022-10-31T00:11:17;14.93;;;6.95;;
56401;SDS011;42299;35.160;26.100;2022-10-31T00:12:39;13.38;;;5.93;;
56401;SDS011;42299;35.160;26.100;2022-10-31T00:14:00;15.15;;;6.07;;
56401;SDS011;42299;35.160;26.100;2022-10-31T00:15:25;16.42;;;6.15;;
56401;SDS011;42299;35.160;26.100;2022-10-31T00:16:46;15.07;;;5.95;;
56401;SDS011;42299;35.160;26.100;2022-10-31T00:18:09;12.32;;;6.95;;
56401;SDS011;42299;35.160;26.100;2022-10-31T00:19:31;13.27;;;5.90;;
56401;SDS011;42299;35.160;26.100;2022-10-31T00:20:58;11.13;;;5.57;;
56401;SDS011;42299;35.160;26.100;2022-10-31T00:22:20;16.25;;;6.00;;
56401;SDS011;42299;35.160;26.100;2022-10-31T00:23:43;14.60;;;6.40;;
56401;SDS011;42299;35.160;26.100;2022-10-31T00:25:04;12.77;;;6.68;;
56401;SDS011;42299;35.160;26.100;2022-10-31T00:26:27;14.10;;;5.80;;
56401;SDS011;42299;35.160;26.100;2022-10-31T00:27:49;13.95;;;5.70;;
56401;SDS011;42299;35.160;26.100;2022-10-31T00:29:11;13.23;;;5.85;;
56401;SDS011;42299;35.160;26.100;2022-10-31T00:31:56;12.80;;;5.85;;
56401;SDS011;42299;35.160;26.100;2022-10-31T00:33:18;12.45;;;5.30;;
56401;SDS011;42299;35.160;26.100;2022-10-31T00:34:40;15.10;;;5.57;;
56401;SDS011;42299;35.160;26.100;2022-10-31T00:36:04;15.93;;;5.97;;
56401;SDS011;42299;35.160;26.100;2022-10-31T00:37:28;15.60;;;5.03;;
56401;SDS011;42299;35.160;26.100;2022-10-31T00:38:50;14.32;;;5.35;;
56401;SDS011;42299;35.160;26.100;2022-10-31T00:40:11;14.32;;;5.38;;
56401;SDS011;42299;35.160;26.100;2022-10-31T00:41:34;9.10;;;4.47;;
56401;SDS011;42299;35.160;26.100;2022-10-31T00:42:56;12.77;;;5.85;;
56401;SDS011;42299;35.160;26.100;2022-10-31T00:44:18;12.10;;;5.50;;
56401;SDS011;42299;35.160;26.100;2022-10-31T00:45:42;10.52;;;5.40;;
56401;SDS011;42299;35.160;26.100;2022-10-31T00:47:05;13.48;;;6.22;;
56401;SDS011;42299;35.160;26.100;2022-10-31T00:48:28;12.40;;;5.75;;
56401;SDS011;42299;35.160;26.100;2022-10-31T00:49:49;17.15;;;5.05;;
56401;SDS011;42299;35.160;26.100;2022-10-31T00:51:12;12.20;;;4.70;;
56401;SDS011;42299;35.160;26.100;2022-10-31T00:52:35;10.45;;;4.88;;
56401;SDS011;42299;35.160;26.100;2022-10-31T00:53:56;11.95;;;5.03;;
56401;SDS011;42299;35.160;26.100;2022-10-31T00:55:19;9.75;;;4.93;;
56401;SDS011;42299;35.160;26.100;2022-10-31T00:56:40;14.75;;;5.05;;
56401;SDS011;42299;35.160;26.100;2022-10-31T00:58:03;12.35;;;5.30;;
56401;SDS011;42299;35.160;26.100;2022-10-31T00:59:24;13.77;;;4.43;;
56401;SDS011;42299;35.160;26.100;2022-10-31T01:00:48;10.43;;;4.28;;
56401;SDS011;42299;35.160;26.100;2022-10-31T01:02:15;9.88;;;4.80;;
56401;SDS011;42299;35.160;26.100;2022-10-31T01:03:37;11.85;;;4.82;;
56401;SDS011;42299;35.160;26.100;2022-10-31T01:05:04;20.20;;;4.70;;
56401;SDS011;42299;35.160;26.100;2022-10-31T01:06:26;13.45;;;4.78;;
56401;SDS011;42299;35.160;26.100;2022-10-31T01:07:51;11.10;;;4.65;;
56401;SDS011;42299;35.160;26.100;2022-10-31T01:09:12;12.18;;;5.10;;
56401;SDS011;42299;35.160;26.100;2022-10-31T01:10:34;11.93;;;4.70;;
56401;SDS011;42299;35.160;26.100;2022-10-31T01:11:56;12.55;;;5.35;;
56401;SDS011;42299;35.160;26.100;2022-10-31T01:13:18;11.35;;;4.85;;
56401;SDS011;42299;35.160;26.100;2022-10-31T01:14:42;10.27;;;4.50;;
56401;SDS011;42299;35.160;26.100;2022-10-31T01:16:07;9.75;;;4.90;;
56401;SDS011;42299;35.160;26.100;2022-10-31T01:17:32;12.88;;;5.65;;
56401;SDS011;42299;35.160;26.100;2022-10-31T01:18:53;11.43;;;4.88;;
56401;SDS011;42299;35.160;26.100;2022-10-31T01:20:17;11.38;;;4.68;;
56401;SDS011;42299;35.160;26.100;2022-10-31T01:21:38;12.05;;;4.57;;
56401;SDS011;42299;35.160;26.100;2022-10-31T01:23:01;11.00;;;5.15;;
56401;SDS011;42299;35.160;26.100;2022-10-31T01:24:22;13.88;;;4.97;;
56401;SDS011;42299;35.160;26.100;2022-10-31T01:25:45;16.63;;;5.43;;
56401;SDS011;42299;35.160;26.100;2022-10-31T01:27:07;10.05;;;4.43;;
56401;SDS011;42299;35.160;26.100;2022-10-31T01:28:29;12.85;;;5.95;;
56401;SDS011;42299;35.160;26.100;2022-10-31T01:29:50;12.50;;;5.30;;
56401;SDS011;42299;35.160;26.100;2022-10-31T01:31:16;14.55;;;4.85;;
56401;SDS011;42299;35.160;26.100;2022-10-31T01:32:39;13.75;;;5.47;;
56401;SDS011;42299;35.160;26.100;2022-10-31T01:34:00;14.35;;;5.25;;
56401;SDS011;42299;35.160;26.100;2022-10-31T01:35:23;11.30;;;4.88;;
56401;SDS011;42299;35.160;26.100;2022-10-31T01:36:45;12.20;;;5.60;;
56401;SDS011;42299;35.160;26.100;2022-10-31T01:38:11;17.13;;;5.30;;
56401;SDS011;42299;35.160;26.100;2022-10-31T01:39:33;13.55;;;4.68;;
56401;SDS011;42299;35.160;26.100;2022-10-31T01:40:55;10.35;;;5.10;;
56401;SDS011;42299;35.160;26.100;2022-10-31T01:42:17;11.38;;;4.50;;
56401;SDS011;42299;35.160;26.100;2022-10-31T01:43:46;15.27;;;4.63;;
56401;SDS011;42299;35.160;26.100;2022-10-31T01:45:09;13.55;;;5.60;;
56401;SDS011;42299;35.160;26.100;2022-10-31T01:46:35;11.07;;;5.00;;
56401;SDS011;42299;35.160;26.100;2022-10-31T01:48:01;13.07;;;5.18;;
56401;SDS011;42299;35.160;26.100;2022-10-31T01:49:24;12.02;;;5.57;;
56401;SDS011;42299;35.160;26.100;2022-10-31T01:50:57;12.82;;;5.45;;
56401;SDS011;42299;35.160;26.100;2022-10-31T01:52:20;10.02;;;4.88;;
56401;SDS011;42299;35.160;26.100;2022-10-31T01:53:48;10.55;;;4.85;;
56401;SDS011;42299;35.160;26.100;2022-10-31T01:55:15;16.73;;;5.90;;
56401;SDS011;42299;35.160;26.100;2022-10-31T01:56:40;13.60;;;5.57;;
56401;SDS011;42299;35.160;26.100;2022-10-31T01:58:08;11.23;;;5.05;;
56401;SDS011;42299;35.160;26.100;2022-10-31T01:59:33;13.57;;;4.70;;
56401;SDS011;42299;35.160;26.100;2022-10-31T02:01:00;10.38;;;5.10;;
56401;SDS011;42299;35.160;26.100;2022-10-31T02:02:24;11.82;;;4.40;;
56401;SDS011;42299;35.160;26.100;2022-10-31T02:03:49;10.30;;;4.82;;
56401;SDS011;42299;35.160;26.100;2022-10-31T02:05:16;14.70;;;4.75;;
56401;SDS011;42299;35.160;26.100;2022-10-31T02:06:41;14.07;;;5.55;;
56401;SDS011;42299;35.160;26.100;2022-10-31T02:08:08;10.77;;;4.97;;
56401;SDS011;42299;35.160;26.100;2022-10-31T02:09:34;11.10;;;4.55;;
56401;SDS011;42299;35.160;26.100;2022-10-31T02:10:59;12.90;;;4.70;;
56401;SDS011;42299;35.160;26.100;2022-10-31T02:12:22;14.15;;;4.80;;
56401;SDS011;42299;35.160;26.100;2022-10-31T02:13:50;9.43;;;3.97;;
56401;SDS011;42299;35.160;26.100;2022-10-31T02:15:12;10.63;;;4.80;;
56401;SDS011;42299;35.160;26.100;2022-10-31T02:16:37;12.45;;;4.30;;
56401;SDS011;42299;35.160;26.100;2022-10-31T02:18:01;12.02;;;4.88;;
56401;SDS011;42299;35.160;26.100;2022-10-31T02:19:26;12.50;;;4.60;;
56401;SDS011;42299;35.160;26.100;2022-10-31T02:20:58;14.48;;;5.47;;
56401;SDS011;42299;35.160;26.100;2022-10-31T02:22:26;13.40;;;4.80;;
56401;SDS011;42299;35.160;26.100;2022-10-31T02:25:53;14.57;;;5.00;;
56401;SDS011;42299;35.160;26.100;2022-10-31T02:27:42;9.52;;;4.50;;
56401;SDS011;42299;35.160;26.100;2022-10-31T02:29:40;10.32;;;5.15;;
56401;SDS011;42299;35.160;26.100;2022-10-31T02:31:22;11.65;;;4.93;;
56401;SDS011;42299;35.160;26.100;2022-10-31T02:33:00;11.07;;;4.90;;
56401;SDS011;42299;35.160;26.100;2022-10-31T02:34:32;11.60;;;4.75;;
56401;SDS011;42299;35.160;26.100;2022-10-31T02:36:02;10.40;;;5.28;;
56401;SDS011;42299;35.160;26.100;2022-10-31T02:37:34;13.20;;;4.70;;
56401;SDS011;42299;35.160;26.100;2022-10-31T02:39:06;9.30;;;4.75;;
56401;SDS011;42299;35.160;26.100;2022-10-31T02:40:38;15.02;;;5.35;;
56401;SDS011;42299;35.160;26.100;2022-10-31T02:42:38;13.32;;;4.78;;
56401;SDS011;42299;35.160;26.100;2022-10-31T02:44:14;17.60;;;5.35;;
56401;SDS011;42299;35.160;26.100;2022-10-31T02:45:44;13.20;;;5.55;;
56401;SDS011;42299;35.160;26.100;2022-10-31T02:47:13;12.07;;;5.25;;
56401;SDS011;42299;35.160;26.100;2022-10-31T02:48:36;15.52;;;5.18;;
56401;SDS011;42299;35.160;26.100;2022-10-31T02:50:03;13.05;;;5.47;;
56401;SDS011;42299;35.160;26.100;2022-10-31T02:51:29;7.78;;;4.43;;
56401;SDS011;42299;35.160;26.100;2022-10-31T02:52:51;12.32;;;4.63;;
56401;SDS011;42299;35.160;26.100;2022-10-31T02:54:17;11.38;;;5.30;;
56401;SDS011;42299;35.160;26.100;2022-10-31T02:55:55;11.80;;;5.10;;
56401;SDS011;42299;35.160;26.100;2022-10-31T02:57:20;11.27;;;5.90;;
56401;SDS011;42299;35.160;26.100;2022-10-31T02:58:47;12.45;;;4.70;;
56401;SDS011;42299;35.160;26.100;2022-10-31T03:00:12;13.02;;;5.22;;
56401;SDS011;42299;35.160;26.100;2022-10-31T03:03:28;11.93;;;4.68;;
56401;SDS011;42299;35.160;26.100;2022-10-31T03:05:04;10.30;;;4.80;;
56401;SDS011;42299;35.160;26.100;2022-10-31T03:06:34;12.45;;;4.80;;
56401;SDS011;42299;35.160;26.100;2022-10-31T03:08:05;12.70;;;4.90;;
56401;SDS011;42299;35.160;26.100;2022-10-31T03:09:33;11.95;;;4.68;;
56401;SDS011;42299;35.160;26.100;2022-10-31T03:11:05;12.40;;;5.32;;
56401;SDS011;42299;35.160;26.100;2022-10-31T03:12:34;12.00;;;4.82;;
56401;SDS011;42299;35.160;26.100;2022-10-31T03:14:02;13.45;;;5.65;;
56401;SDS011;42299;35.160;26.100;2022-10-31T03:15:32;12.45;;;4.95;;
56401;SDS011;42299;35.160;26.100;2022-10-31T03:16:59;13.32;;;5.03;;
56401;SDS011;42299;35.160;26.100;2022-10-31T03:18:26;14.50;;;4.78;;
56401;SDS011;42299;35.160;26.100;2022-10-31T03:19:55;13.10;;;4.40;;
56401;SDS011;42299;35.160;26.100;2022-10-31T03:21:22;10.48;;;4.82;;
56401;SDS011;42299;35.160;26.100;2022-10-31T03:22:50;10.88;;;5.13;;
56401;SDS011;42299;35.160;26.100;2022-10-31T03:24:15;9.98;;;4.43;;
56401;SDS011;42299;35.160;26.100;2022-10-31T03:25:38;8.77;;;4.80;;
56401;SDS011;42299;35.160;26.100;2022-10-31T03:27:02;8.45;;;4.65;;
56401;SDS011;42299;35.160;26.100;2022-10-31T03:28:30;9.80;;;4.72;;
56401;SDS011;42299;35.160;26.100;2022-10-31T03:29:59;15.75;;;5.45;;
56401;SDS011;42299;35.160;26.100;2022-10-31T03:31:35;14.73;;;4.80;;
56401;SDS011;42299;35.160;26.100;2022-10-31T03:33:02;13.00;;;4.97;;
56401;SDS011;42299;35.160;26.100;2022-10-31T03:34:28;14.52;;;5.38;;
56401;SDS011;42299;35.160;26.100;2022-10-31T03:35:53;11.93;;;4.85;;
56401;SDS011;42299;35.160;26.100;2022-10-31T03:37:18;13.23;;;4.55;;
56401;SDS011;42299;35.160;26.100;2022-10-31T03:38:43;10.52;;;5.25;;
56401;SDS011;42299;35.160;26.100;2022-10-31T03:40:11;13.15;;;4.53;;
56401;SDS011;42299;35.160;26.100;2022-10-31T03:41:38;14.82;;;5.30;;
56401;SDS011;42299;35.160;26.100;2022-10-31T03:43:03;10.43;;;4.82;;
56401;SDS011;42299;35.160;26.100;2022-10-31T03:44:29;13.02;;;4.95;;
56401;SDS011;42299;35.160;26.100;2022-10-31T03:45:56;13.20;;;4.60;;
56401;SDS011;42299;35.160;26.100;2022-10-31T03:47:18;12.43;;;5.10;;
56401;SDS011;42299;35.160;26.100;2022-10-31T03:48:42;11.52;;;5.07;;
56401;SDS011;42299;35.160;26.100;2022-10-31T03:50:07;11.73;;;4.82;;
56401;SDS011;42299;35.160;26.100;2022-10-31T03:51:34;10.63;;;4.90;;
56401;SDS011;42299;35.160;26.100;2022-10-31T03:53:02;11.25;;;4.78;;
56401;SDS011;42299;35.160;26.100;2022-10-31T03:54:31;13.23;;;4.20;;
56401;SDS011;42299;35.160;26.100;2022-10-31T03:55:59;11.40;;;4.68;;
56401;SDS011;42299;35.160;26.100;2022-10-31T03:57:27;11.85;;;5.00;;
56401;SDS011;42299;35.160;26.100;2022-10-31T03:58:53;12.20;;;4.70;;
56401;SDS011;42299;35.160;26.100;2022-10-31T04:00:23;9.60;;;4.78;;
56401;SDS011;42299;35.160;26.100;2022-10-31T04:01:50;13.27;;;4.78;;
56401;SDS011;42299;35.160;26.100;2022-10-31T04:03:15;10.23;;;4.82;;
56401;SDS011;42299;35.160;26.100;2022-10-31T04:04:44;12.20;;;5.20;;
56401;SDS011;42299;35.160;26.100;2022-10-31T04:06:12;17.02;;;5.47;;
56401;SDS011;42299;35.160;26.100;2022-10-31T04:07:37;9.30;;;4.88;;
56401;SDS011;42299;35.160;26.100;2022-10-31T04:09:05;10.90;;;4.85;;
56401;SDS011;42299;35.160;26.100;2022-10-31T04:10:30;11.27;;;4.75;;
56401;SDS011;42299;35.160;26.100;2022-10-31T04:11:55;10.43;;;4.90;;
56401;SDS011;42299;35.160;26.100;2022-10-31T04:13:37;14.07;;;5.30;;
56401;SDS011;42299;35.160;26.100;2022-10-31T04:15:06;10.40;;;4.47;;
56401;SDS011;42299;35.160;26.100;2022-10-31T04:16:34;10.35;;;4.93;;
56401;SDS011;42299;35.160;26.100;2022-10-31T04:17:55;14.90;;;4.60;;
56401;SDS011;42299;35.160;26.100;2022-10-31T04:19:21;10.27;;;4.68;;
56401;SDS011;42299;35.160;26.100;2022-10-31T04:20:42;13.40;;;4.90;;
56401;SDS011;42299;35.160;26.100;2022-10-31T04:22:08;12.75;;;5.47;;
56401;SDS011;42299;35.160;26.100;2022-10-31T04:23:32;14.77;;;4.75;;
56401;SDS011;42299;35.160;26.100;2022-10-31T04:24:58;12.55;;;5.40;;
56401;SDS011;42299;35.160;26.100;2022-10-31T04:26:20;11.13;;;5.28;;
56401;SDS011;42299;35.160;26.100;2022-10-31T04:27:42;11.85;;;4.70;;
56401;SDS011;42299;35.160;26.100;2022-10-31T04:29:04;13.32;;;5.28;;
56401;SDS011;42299;35.160;26.100;2022-10-31T04:30:26;15.73;;;5.82;;
56401;SDS011;42299;35.160;26.100;2022-10-31T04:31:48;11.98;;;4.60;;
56401;SDS011;42299;35.160;26.100;2022-10-31T04:33:11;13.63;;;5.13;;
56401;SDS011;42299;35.160;26.100;2022-10-31T04:34:33;13.70;;;5.88;;
56401;SDS011;42299;35.160;26.100;2022-10-31T04:35:56;8.63;;;4.93;;
56401;SDS011;42299;35.160;26.100;2022-10-31T04:37:19;13.43;;;4.75;;
56401;SDS011;42299;35.160;26.100;2022-10-31T04:38:42;16.75;;;6.85;;
56401;SDS011;42299;35.160;26.100;2022-10-31T04:40:23;12.88;;;6.43;;
56401;SDS011;42299;35.160;26.100;2022-10-31T04:42:05;14.70;;;4.90;;
56401;SDS011;42299;35.160;26.100;2022-10-31T04:43:28;13.85;;;5.88;;
56401;SDS011;42299;35.160;26.100;2022-10-31T04:44:53;14.32;;;6.10;;
56401;SDS011;42299;35.160;26.100;2022-10-31T04:46:14;12.68;;;5.80;;
56401;SDS011;42299;35.160;26.100;2022-10-31T04:47:37;16.05;;;7.13;;
56401;SDS011;42299;35.160;26.100;2022-10-31T04:49:00;12.05;;;4.93;;
56401;SDS011;42299;35.160;26.100;2022-10-31T04:50:23;12.40;;;5.55;;
56401;SDS011;42299;35.160;26.100;2022-10-31T04:51:45;15.60;;;5.63;;
56401;SDS011;42299;35.160;26.100;2022-10-31T04:53:09;12.32;;;4.75;;
56401;SDS011;42299;35.160;26.100;2022-10-31T04:54:43;12.27;;;5.75;;
56401;SDS011;42299;35.160;26.100;2022-10-31T04:56:25;14.68;;;4.97;;
56401;SDS011;42299;35.160;26.100;2022-10-31T04:57:56;22.80;;;5.38;;
56401;SDS011;42299;35.160;26.100;2022-10-31T04:59:20;14.82;;;5.20;;
56401;SDS011;42299;35.160;26.100;2022-10-31T05:00:46;13.55;;;4.95;;
56401;SDS011;42299;35.160;26.100;2022-10-31T05:02:09;12.70;;;5.13;;
56401;SDS011;42299;35.160;26.100;2022-10-31T05:03:38;11.32;;;4.82;;
56401;SDS011;42299;35.160;26.100;2022-10-31T05:05:01;10.30;;;5.25;;
56401;SDS011;42299;35.160;26.100;2022-10-31T05:06:24;12.55;;;5.18;;
56401;SDS011;42299;35.160;26.100;2022-10-31T05:07:47;13.13;;;5.25;;
56401;SDS011;42299;35.160;26.100;2022-10-31T05:09:12;12.98;;;5.97;;
56401;SDS011;42299;35.160;26.100;2022-10-31T05:10:34;11.77;;;5.53;;
56401;SDS011;42299;35.160;26.100;2022-10-31T05:11:57;11.98;;;5.25;;
56401;SDS011;42299;35.160;26.100;2022-10-31T05:13:54;11.95;;;5.15;;
56401;SDS011;42299;35.160;26.100;2022-10-31T05:15:36;9.50;;;4.93;;
56401;SDS011;42299;35.160;26.100;2022-10-31T05:17:19;10.93;;;4.85;;
56401;SDS011;42299;35.160;26.100;2022-10-31T05:19:01;11.63;;;4.85;;
56401;SDS011;42299;35.160;26.100;2022-10-31T05:20:55;12.30;;;4.93;;
56401;SDS011;42299;35.160;26.100;2022-10-31T05:22:31;12.57;;;5.97;;
56401;SDS011;42299;35.160;26.100;2022-10-31T05:23:54;12.98;;;6.15;;
56401;SDS011;42299;35.160;26.100;2022-10-31T05:25:20;11.25;;;5.38;;
56401;SDS011;42299;35.160;26.100;2022-10-31T05:26:43;14.18;;;5.47;;
56401;SDS011;42299;35.160;26.100;2022-10-31T05:28:07;19.85;;;5.95;;
56401;SDS011;42299;35.160;26.100;2022-10-31T05:29:29;12.65;;;5.80;;
56401;SDS011;42299;35.160;26.100;2022-10-31T05:30:54;12.05;;;5.70;;
56401;SDS011;42299;35.160;26.100;2022-10-31T05:32:17;12.80;;;5.35;;
56401;SDS011;42299;35.160;26.100;2022-10-31T05:34:14;11.30;;;5.47;;
56401;SDS011;42299;35.160;26.100;2022-10-31T05:35:56;12.27;;;4.97;;
56401;SDS011;42299;35.160;26.100;2022-10-31T05:37:36;11.98;;;5.53;;
56401;SDS011;42299;35.160;26.100;2022-10-31T05:38:57;13.65;;;5.50;;
56401;SDS011;42299;35.160;26.100;2022-10-31T05:40:27;8.82;;;5.78;;
56401;SDS011;42299;35.160;26.100;2022-10-31T05:41:49;13.45;;;6.07;;
56401;SDS011;42299;35.160;26.100;2022-10-31T05:43:19;12.80;;;6.10;;
56401;SDS011;42299;35.160;26.100;2022-10-31T05:44:41;17.60;;;6.03;;
56401;SDS011;42299;35.160;26.100;2022-10-31T05:46:16;13.57;;;5.85;;
56401;SDS011;42299;35.160;26.100;2022-10-31T05:48:07;17.15;;;6.25;;
56401;SDS011;42299;35.160;26.100;2022-10-31T05:50:02;15.80;;;6.75;;
56401;SDS011;42299;35.160;26.100;2022-10-31T05:51:54;14.00;;;5.22;;
56401;SDS011;42299;35.160;26.100;2022-10-31T05:53:27;11.45;;;5.85;;
56401;SDS011;42299;35.160;26.100;2022-10-31T05:54:50;14.23;;;6.38;;
56401;SDS011;42299;35.160;26.100;2022-10-31T05:56:13;13.13;;;6.18;;
56401;SDS011;42299;35.160;26.100;2022-10-31T05:57:35;15.68;;;5.82;;
56401;SDS011;42299;35.160;26.100;2022-10-31T05:58:57;14.55;;;6.15;;
56401;SDS011;42299;35.160;26.100;2022-10-31T06:00:20;16.98;;;6.93;;
56401;SDS011;42299;35.160;26.100;2022-10-31T06:01:43;14.70;;;6.05;;
56401;SDS011;42299;35.160;26.100;2022-10-31T06:03:32;14.98;;;6.18;;
56401;SDS011;42299;35.160;26.100;2022-10-31T06:04:57;14.38;;;8.82;;
56401;SDS011;42299;35.160;26.100;2022-10-31T06:06:19;15.27;;;5.43;;
56401;SDS011;42299;35.160;26.100;2022-10-31T06:07:42;12.98;;;6.10;;
56401;SDS011;42299;35.160;26.100;2022-10-31T06:09:04;12.77;;;6.55;;
56401;SDS011;42299;35.160;26.100;2022-10-31T06:10:29;13.88;;;7.75;;
56401;SDS011;42299;35.160;26.100;2022-10-31T06:11:53;15.95;;;7.80;;
56401;SDS011;42299;35.160;26.100;2022-10-31T06:13:18;13.13;;;6.30;;
56401;SDS011;42299;35.160;26.100;2022-10-31T06:14:47;15.27;;;7.38;;
56401;SDS011;42299;35.160;26.100;2022-10-31T06:16:09;17.40;;;6.53;;
56401;SDS011;42299;35.160;26.100;2022-10-31T06:17:33;18.40;;;8.32;;
56401;SDS011;42299;35.160;26.100;2022-10-31T06:18:59;17.98;;;8.63;;
56401;SDS011;42299;35.160;26.100;2022-10-31T06:20:22;18.20;;;7.97;;
56401;SDS011;42299;35.160;26.100;2022-10-31T06:21:51;20.52;;;7.85;;
56401;SDS011;42299;35.160;26.100;2022-10-31T06:23:13;16.60;;;7.18;;
56401;SDS011;42299;35.160;26.100;2022-10-31T06:24:38;11.90;;;7.88;;
56401;SDS011;42299;35.160;26.100;2022-10-31T06:26:31;19.52;;;9.57;;
56401;SDS011;42299;35.160;26.100;2022-10-31T06:27:56;18.25;;;9.98;;
56401;SDS011;42299;35.160;26.100;2022-10-31T06:29:24;22.50;;;9.98;;
56401;SDS011;42299;35.160;26.100;2022-10-31T06:31:04;19.63;;;8.02;;
56401;SDS011;42299;35.160;26.100;2022-10-31T06:32:27;17.48;;;7.75;;
56401;SDS011;42299;35.160;26.100;2022-10-31T06:33:48;15.85;;;7.80;;
56401;SDS011;42299;35.160;26.100;2022-10-31T06:35:10;15.88;;;7.07;;
56401;SDS011;42299;35.160;26.100;2022-10-31T06:36:33;13.07;;;4.93;;
56401;SDS011;42299;35.160;26.100;2022-10-31T06:37:57;13.40;;;5.72;;
56401;SDS011;42299;35.160;26.100;2022-10-31T06:39:37;18.58;;;6.13;;
56401;SDS011;42299;35.160;26.100;2022-10-31T06:41:03;12.07;;;5.05;;
56401;SDS011;42299;35.160;26.100;2022-10-31T06:42:36;11.02;;;4.68;;
56401;SDS011;42299;35.160;26.100;2022-10-31T06:44:00;14.18;;;4.50;;
56401;SDS011;42299;35.160;26.100;2022-10-31T06:45:43;11.32;;;4.72;;
56401;SDS011;42299;35.160;26.100;2022-10-31T06:47:22;20.63;;;5.97;;
56401;SDS011;42299;35.160;26.100;2022-10-31T06:48:50;14.57;;;5.03;;
56401;SDS011;42299;35.160;26.100;2022-10-31T06:50:17;15.13;;;4.55;;
56401;SDS011;42299;35.160;26.100;2022-10-31T06:51:40;14.20;;;4.50;;
56401;SDS011;42299;35.160;26.100;2022-10-31T06:53:02;8.63;;;3.47;;
56401;SDS011;42299;35.160;26.100;2022-10-31T06:54:25;12.68;;;4.38;;
56401;SDS011;42299;35.160;26.100;2022-10-31T06:55:48;14.95;;;3.90;;
56401;SDS011;42299;35.160;26.100;2022-10-31T06:57:11;12.35;;;3.92;;
56401;SDS011;42299;35.160;26.100;2022-10-31T06:58:34;10.30;;;4.05;;
56401;SDS011;42299;35.160;26.100;2022-10-31T07:00:00;12.82;;;5.85;;
56401;SDS011;42299;35.160;26.100;2022-10-31T07:01:30;13.48;;;5.68;;
56401;SDS011;42299;35.160;26.100;2022-10-31T07:02:53;13.77;;;4.75;;
56401;SDS011;42299;35.160;26.100;2022-10-31T07:04:17;10.57;;;4.13;;
56401;SDS011;42299;35.160;26.100;2022-10-31T07:05:42;11.88;;;4.63;;
56401;SDS011;42299;35.160;26.100;2022-10-31T07:07:05;16.17;;;4.78;;
56401;SDS011;42299;35.160;26.100;2022-10-31T07:08:29;8.30;;;3.63;;
56401;SDS011;42299;35.160;26.100;2022-10-31T07:09:50;16.05;;;4.10;;
56401;SDS011;42299;35.160;26.100;2022-10-31T07:11:18;8.63;;;3.58;;
56401;SDS011;42299;35.160;26.100;2022-10-31T07:12:42;11.80;;;4.28;;
56401;SDS011;42299;35.160;26.100;2022-10-31T07:14:05;12.43;;;3.60;;
56401;SDS011;42299;35.160;26.100;2022-10-31T07:15:30;11.65;;;3.47;;
56401;SDS011;42299;35.160;26.100;2022-10-31T07:16:55;12.48;;;3.58;;
56401;SDS011;42299;35.160;26.100;2022-10-31T07:18:25;7.72;;;3.47;;
56401;SDS011;42299;35.160;26.100;2022-10-31T07:19:48;6.20;;;3.75;;
56401;SDS011;42299;35.160;26.100;2022-10-31T07:21:11;7.70;;;2.58;;
56401;SDS011;42299;35.160;26.100;2022-10-31T07:22:33;6.80;;;2.72;;
56401;SDS011;42299;35.160;26.100;2022-10-31T07:23:58;5.30;;;2.50;;
56401;SDS011;42299;35.160;26.100;2022-10-31T07:25:41;6.68;;;2.92;;
56401;SDS011;42299;35.160;26.100;2022-10-31T07:27:09;6.05;;;3.10;;
56401;SDS011;42299;35.160;26.100;2022-10-31T07:28:32;6.88;;;2.60;;
56401;SDS011;42299;35.160;26.100;2022-10-31T07:29:55;7.15;;;2.70;;
56401;SDS011;42299;35.160;26.100;2022-10-31T07:31:18;7.70;;;2.88;;
56401;SDS011;42299;35.160;26.100;2022-10-31T07:32:40;5.43;;;2.17;;
56401;SDS011;42299;35.160;26.100;2022-10-31T07:34:03;5.25;;;2.13;;
56401;SDS011;42299;35.160;26.100;2022-10-31T07:35:29;7.70;;;2.60;;
56401;SDS011;42299;35.160;26.100;2022-10-31T07:36:52;8.98;;;2.60;;
56401;SDS011;42299;35.160;26.100;2022-10-31T07:38:14;7.85;;;2.92;;
56401;SDS011;42299;35.160;26.100;2022-10-31T07:39:37;8.85;;;2.58;;
56401;SDS011;42299;35.160;26.100;2022-10-31T07:41:03;6.97;;;2.72;;
56401;SDS011;42299;35.160;26.100;2022-10-31T07:42:34;5.95;;;2.47;;
56401;SDS011;42299;35.160;26.100;2022-10-31T07:43:57;7.57;;;2.35;;
56401;SDS011;42299;35.160;26.100;2022-10-31T07:45:20;8.93;;;3.05;;
56401;SDS011;42299;35.160;26.100;2022-10-31T07:47:04;8.35;;;2.80;;
56401;SDS011;42299;35.160;26.100;2022-10-31T07:48:46;17.17;;;7.55;;
56401;SDS011;42299;35.160;26.100;2022-10-31T07:50:27;16.77;;;7.47;;
56401;SDS011;42299;35.160;26.100;2022-10-31T07:52:29;37.80;;;18.92;;
56401;SDS011;42299;35.160;26.100;2022-10-31T07:54:03;23.45;;;12.65;;
56401;SDS011;42299;35.160;26.100;2022-10-31T07:55:26;19.67;;;7.47;;
56401;SDS011;42299;35.160;26.100;2022-10-31T07:56:51;12.65;;;5.63;;
56401;SDS011;42299;35.160;26.100;2022-10-31T07:58:15;6.68;;;2.75;;
56401;SDS011;42299;35.160;26.100;2022-10-31T07:59:39;8.30;;;2.45;;
56401;SDS011;42299;35.160;26.100;2022-10-31T08:01:02;7.75;;;2.28;;
56401;SDS011;42299;35.160;26.100;2022-10-31T08:02:34;4.35;;;2.08;;
56401;SDS011;42299;35.160;26.100;2022-10-31T08:04:17;8.15;;;2.95;;
56401;SDS011;42299;35.160;26.100;2022-10-31T08:05:58;8.98;;;4.07;;
56401;SDS011;42299;35.160;26.100;2022-10-31T08:07:23;8.38;;;4.35;;
56401;SDS011;42299;35.160;26.100;2022-10-31T08:08:52;6.28;;;3.40;;
56401;SDS011;42299;35.160;26.100;2022-10-31T08:10:14;7.40;;;3.25;;
56401;SDS011;42299;35.160;26.100;2022-10-31T08:11:36;9.30;;;3.13;;
56401;SDS011;42299;35.160;26.100;2022-10-31T08:12:59;8.00;;;3.08;;
56401;SDS011;42299;35.160;26.100;2022-10-31T08:14:23;11.55;;;4.18;;
56401;SDS011;42299;35.160;26.100;2022-10-31T08:15:46;11.27;;;4.75;;
56401;SDS011;42299;35.160;26.100;2022-10-31T08:17:11;9.77;;;4.55;;
56401;SDS011;42299;35.160;26.100;2022-10-31T08:19:01;7.40;;;3.10;;
56401;SDS011;42299;35.160;26.100;2022-10-31T08:20:29;8.18;;;2.30;;
56401;SDS011;42299;35.160;26.100;2022-10-31T08:21:52;7.45;;;2.58;;
56401;SDS011;42299;35.160;26.100;2022-10-31T08:23:15;12.43;;;2.90;;
56401;SDS011;42299;35.160;26.100;2022-10-31T08:24:38;6.65;;;3.40;;
56401;SDS011;42299;35.160;26.100;2022-10-31T08:26:00;6.32;;;2.70;;
56401;SDS011;42299;35.160;26.100;2022-10-31T08:27:24;8.93;;;3.55;;
56401;SDS011;42299;35.160;26.100;2022-10-31T08:28:45;15.63;;;6.63;;
56401;SDS011;42299;35.160;26.100;2022-10-31T08:30:10;9.88;;;4.32;;
56401;SDS011;42299;35.160;26.100;2022-10-31T08:31:39;10.27;;;3.17;;
56401;SDS011;42299;35.160;26.100;2022-10-31T08:33:20;6.80;;;2.85;;
56401;SDS011;42299;35.160;26.100;2022-10-31T08:35:02;7.03;;;3.08;;